Time;durP1;ratioP1;P1;durP2;ratioP2;P2;SDS_P1;SDS_P2;PMS_P1;PMS_P2;Temp;Humidity;BMP_temperature;BMP_pressure;BME280_temperature;BME280_humidity;BME280_pressure;Samples;Min_cycle;Max_cycle;Signal;HPM_P1;HPM_P2
2022/12/12 00:00:16;;;;;;;1.90;1.50;;;;;;;9.14;67.92;98234.91;5071789;28;20028;-36
2022/12/12 00:02:42;;;;;;;1.60;1.45;;;;;;;9.29;67.46;98239.72;5073302;28;20111;-37
2022/12/12 00:05:09;;;;;;;2.33;1.50;;;;;;;9.21;67.15;98235.56;5073329;28;20518;-36
2022/12/12 00:07:34;;;;;;;3.65;1.50;;;;;;;8.97;67.76;98246.19;5073315;28;20052;-36
2022/12/12 00:10:00;;;;;;;2.28;1.52;;;;;;;8.93;67.29;98252.16;5073244;28;20063;-37
2022/12/12 00:12:26;;;;;;;2.03;1.60;;;;;;;8.87;67.37;98261.88;5073072;28;20038;-36
2022/12/12 00:14:52;;;;;;;2.40;1.80;;;;;;;8.79;67.53;98251.59;5072841;28;20020;-36
2022/12/12 00:17:17;;;;;;;2.33;1.77;;;;;;;8.69;67.79;98248.69;5072701;28;20064;-36
2022/12/12 00:19:43;;;;;;;1.80;1.60;;;;;;;8.58;68.13;98256.38;5071660;28;20565;-36
2022/12/12 00:22:08;;;;;;;2.17;1.60;;;;;;;8.76;67.22;98260.81;5072904;28;20042;-41
2022/12/12 00:24:34;;;;;;;2.42;1.60;;;;;;;8.87;66.66;98264.53;5072759;28;20032;-37
2022/12/12 00:27:00;;;;;;;1.90;1.70;;;;;;;8.77;66.61;98262.41;5072761;28;20605;-37
2022/12/12 00:29:25;;;;;;;4.35;2.20;;;;;;;8.60;67.13;98264.94;5072826;28;20028;-37
2022/12/12 00:31:50;;;;;;;3.20;2.20;;;;;;;8.78;66.48;98277.31;5072699;28;20455;-37
2022/12/12 00:34:16;;;;;;;3.65;2.22;;;;;;;8.93;65.79;98281.34;5072559;28;20078;-37
2022/12/12 00:36:41;;;;;;;2.65;1.73;;;;;;;8.69;66.55;98264.59;5072744;28;20028;-37
2022/12/12 00:39:07;;;;;;;2.95;1.85;;;;;;;8.71;66.50;98267.84;5072713;28;20078;-37
2022/12/12 00:41:32;;;;;;;2.75;1.60;;;;;;;8.59;66.97;98271.25;5072791;28;20075;-37
2022/12/12 00:43:58;;;;;;;1.83;1.52;;;;;;;8.70;66.76;98282.13;5072249;28;20028;-36
2022/12/12 00:46:24;;;;;;;2.42;1.90;;;;;;;8.38;68.19;98275.19;5072040;28;20120;-37
2022/12/12 00:48:54;;;;;;;3.42;2.08;;;;;;;8.50;67.97;98274.47;5072559;28;20090;-37
2022/12/12 00:51:21;;;;;;;3.03;2.00;;;;;;;8.70;67.77;98268.84;5072396;28;20029;-37
2022/12/12 00:53:47;;;;;;;3.33;2.00;;;;;;;8.80;67.07;98277.09;5072636;28;20425;-38
2022/12/12 00:56:14;;;;;;;2.83;1.85;;;;;;;8.56;66.29;98277.00;5072505;28;20492;-35
2022/12/12 00:58:40;;;;;;;3.00;2.00;;;;;;;8.00;69.85;98291.38;5072266;28;20435;-36
2022/12/12 01:01:11;;;;;;;3.45;2.13;;;;;;;7.99;70.76;98308.28;5072472;28;20081;-36
2022/12/12 01:03:39;;;;;;;3.65;1.95;;;;;;;8.66;67.68;98310.13;5072041;28;20572;-37
2022/12/12 01:06:05;;;;;;;2.60;2.00;;;;;;;8.62;66.74;98312.41;5072158;28;20032;-37
2022/12/12 01:08:31;;;;;;;3.10;2.10;;;;;;;8.25;68.03;98322.28;5072166;28;20078;-36
2022/12/12 01:10:57;;;;;;;4.88;2.30;;;;;;;8.25;68.49;98327.56;5072459;28;20020;-36
2022/12/12 01:13:23;;;;;;;3.35;2.40;;;;;;;7.95;68.46;98325.66;5072044;28;20025;-36
2022/12/12 01:15:48;;;;;;;4.95;2.30;;;;;;;7.91;68.76;98341.19;5072215;28;20039;-37
2022/12/12 01:18:15;;;;;;;2.72;2.08;;;;;;;8.07;68.48;98345.09;5071768;28;20053;-36
2022/12/12 01:20:41;;;;;;;2.72;2.00;;;;;;;8.04;67.61;98332.28;5071888;28;20024;-37
2022/12/12 01:23:07;;;;;;;3.15;2.30;;;;;;;7.67;68.84;98342.84;5072032;28;20069;-37
2022/12/12 01:25:32;;;;;;;5.68;2.47;;;;;;;7.05;71.20;98343.59;5071805;28;20020;-37
2022/12/12 01:27:59;;;;;;;3.58;2.50;;;;;;;7.12;72.09;98334.78;5071496;28;20183;-37
2022/12/12 01:30:25;;;;;;;3.15;2.42;;;;;;;7.81;69.78;98356.78;5071528;28;20644;-36
2022/12/12 01:32:51;;;;;;;4.45;2.60;;;;;;;7.64;68.94;98378.53;5071477;28;20016;-36
2022/12/12 01:35:17;;;;;;;3.08;2.38;;;;;;;7.48;69.60;98384.34;5071583;28;20020;-36
2022/12/12 01:37:42;;;;;;;3.15;2.30;;;;;;;7.55;69.73;98384.31;5071664;28;20020;-36
2022/12/12 01:40:13;;;;;;;3.00;2.15;;;;;;;7.51;69.65;98375.19;5071810;28;20412;-36
2022/12/12 01:42:39;;;;;;;2.60;2.10;;;;;;;7.75;69.83;98381.47;5071421;28;20439;-36
2022/12/12 01:45:05;;;;;;;2.83;2.20;;;;;;;7.85;69.45;98379.16;5071346;28;20024;-37
2022/12/12 01:47:30;;;;;;;3.13;2.28;;;;;;;7.77;69.64;98396.13;5071339;28;20369;-36
2022/12/12 01:50:06;;;;;;;2.72;2.20;;;;;;;7.98;69.16;98386.97;5071456;28;20035;-37
2022/12/12 01:52:39;;;;;;;2.60;2.00;;;;;;;7.89;69.05;98404.19;5071215;28;20078;-36
2022/12/12 01:55:09;;;;;;;2.35;1.95;;;;;;;7.93;69.26;98399.25;5071198;28;20563;-37
2022/12/12 01:57:46;;;;;;;2.83;2.13;;;;;;;8.03;68.65;98397.72;5070306;28;20151;-37
2022/12/12 02:00:13;;;;;;;2.47;2.00;;;;;;;8.26;67.71;98414.00;5071320;28;20029;-37
2022/12/12 02:02:42;;;;;;;3.63;2.10;;;;;;;8.32;67.29;98415.75;5070884;28;20024;-37
2022/12/12 02:05:32;;;;;;;2.13;1.90;;;;;;;8.16;68.10;98412.66;5071120;28;20044;-37
2022/12/12 02:08:00;;;;;;;3.03;1.92;;;;;;;8.03;69.07;98418.09;5071191;28;20046;-37
2022/12/12 02:10:25;;;;;;;4.13;2.20;;;;;;;8.03;69.32;98424.22;5071685;28;20059;-37
2022/12/12 02:12:57;;;;;;;4.55;2.40;;;;;;;8.04;69.24;98409.13;5071347;28;20052;-38
2022/12/12 02:15:27;;;;;;;4.20;2.15;;;;;;;8.18;69.03;98402.66;5072003;28;20111;-37
2022/12/12 02:18:07;;;;;;;2.95;2.13;;;;;;;7.86;69.88;98380.75;5070992;28;20436;-36
2022/12/12 02:20:48;;;;;;;2.53;1.90;;;;;;;7.97;69.79;98398.59;5071822;28;20025;-37
2022/12/12 02:23:39;;;;;;;2.28;1.90;;;;;;;8.02;69.68;98405.91;5071276;28;20021;-36
2022/12/12 02:26:20;;;;;;;3.70;2.05;;;;;;;7.97;69.47;98398.59;5070902;28;20112;-36
2022/12/12 02:28:51;;;;;;;4.07;2.00;;;;;;;8.22;69.24;98403.03;5071457;28;20040;-36
2022/12/12 02:31:37;;;;;;;3.55;2.13;;;;;;;8.13;68.91;98394.56;5071657;28;20029;-37
2022/12/12 02:34:24;;;;;;;2.75;2.20;;;;;;;7.94;69.22;98417.59;5071353;28;20021;-37
2022/12/12 02:37:14;;;;;;;3.00;2.28;;;;;;;7.98;69.58;98423.25;5071309;28;20488;-36
2022/12/12 02:39:48;;;;;;;3.85;2.50;;;;;;;8.08;68.30;98438.66;5071594;28;20025;-36
2022/12/12 02:42:28;;;;;;;2.70;2.20;;;;;;;8.54;67.08;98434.72;5071209;28;20103;-36
2022/12/12 02:45:11;;;;;;;3.55;2.20;;;;;;;8.71;66.10;98437.56;5071150;28;20093;-36
2022/12/12 02:47:44;;;;;;;2.80;2.20;;;;;;;8.31;65.86;98440.66;5071476;28;20436;-36
2022/12/12 02:50:15;;;;;;;2.40;2.20;;;;;;;8.33;67.04;98443.88;5071554;28;20048;-36
2022/12/12 02:52:45;;;;;;;3.67;2.45;;;;;;;8.87;65.54;98436.97;5071265;28;20051;-36
2022/12/12 02:55:11;;;;;;;3.53;2.40;;;;;;;8.65;65.71;98435.81;5071364;28;20028;-37
2022/12/12 02:57:40;;;;;;;2.53;2.10;;;;;;;8.39;66.81;98446.47;5071324;28;20025;-36
2022/12/12 03:00:07;;;;;;;4.20;2.42;;;;;;;8.47;66.78;98442.72;5071311;28;20021;-36
2022/12/12 03:07:45;;;;;;;3.05;2.28;;;;;;;8.34;67.05;98435.72;5070908;28;20391;-37
2022/12/12 03:08:41;;;;;;;3.28;2.05;;;;;;;8.10;67.64;98424.16;5073055;28;20465;-36
2022/12/12 03:11:11;;;;;;;3.20;2.22;;;;;;;7.87;68.29;98405.44;5074664;28;20082;-36
2022/12/12 03:13:49;;;;;;;3.05;2.30;;;;;;;8.12;68.08;98422.09;5074836;28;20035;-36
2022/12/12 03:16:23;;;;;;;3.00;2.20;;;;;;;8.44;66.45;98419.34;5075257;28;20039;-36
2022/12/12 03:19:07;;;;;;;2.78;2.00;;;;;;;8.43;66.49;98425.66;5073978;28;20437;-37
2022/12/12 03:21:32;;;;;;;3.20;2.30;;;;;;;8.37;67.17;98432.63;5074786;28;20016;-36
2022/12/12 03:24:04;;;;;;;3.25;2.20;;;;;;;8.04;67.96;98432.97;5074682;28;20333;-37
2022/12/12 03:26:38;;;;;;;2.38;2.10;;;;;;;8.22;67.42;98430.34;5074780;28;20032;-37
2022/12/12 03:29:10;;;;;;;3.80;2.20;;;;;;;8.34;66.91;98422.47;5074748;28;20032;-36
2022/12/12 03:31:38;;;;;;;3.45;2.30;;;;;;;8.31;67.06;98427.41;5074397;28;20461;-36
2022/12/12 03:34:13;;;;;;;2.67;2.15;;;;;;;8.47;66.23;98431.31;5074510;28;20423;-36
2022/12/12 03:36:47;;;;;;;4.22;2.20;;;;;;;8.28;66.90;98428.66;5074665;28;20054;-36
2022/12/12 03:39:27;;;;;;;2.90;2.22;;;;;;;8.88;65.69;98433.28;5074289;28;20029;-36
2022/12/12 03:41:58;;;;;;;3.97;2.30;;;;;;;8.79;64.97;98443.38;5074228;28;20111;-36
2022/12/12 03:44:47;;;;;;;3.38;2.28;;;;;;;8.44;65.43;98434.44;5074370;28;20090;-36
2022/12/12 03:47:18;;;;;;;2.90;2.15;;;;;;;8.38;67.41;98442.19;5074247;28;20036;-36
2022/12/12 03:50:13;;;;;;;2.83;2.30;;;;;;;8.78;66.17;98455.03;5074396;28;20040;-36
2022/12/12 03:53:04;;;;;;;2.70;2.30;;;;;;;8.72;65.68;98457.75;5074009;28;20020;-36
2022/12/12 03:55:35;;;;;;;;;;;;;;;8.46;66.64;98459.69;5074542;28;20024;-36
2022/12/12 03:58:08;;;;;;;3.53;2.70;;;;;;;8.14;67.61;98462.41;5074027;28;19936;-36
2022/12/12 04:00:36;;;;;;;4.00;2.47;;;;;;;8.27;67.46;98468.63;5073692;28;20033;-36
2022/12/12 04:03:07;;;;;;;4.03;2.80;;;;;;;8.32;67.22;98474.06;5073841;28;20025;-36
2022/12/12 04:06:25;;;;;;;3.90;2.90;;;;;;;8.23;67.55;98473.56;5074020;28;20029;-36
2022/12/12 04:08:32;;;;;;;10.20;5.65;;;;;;;8.30;67.31;98468.19;5073425;28;20166;-36
2022/12/12 04:14:22;;;;;;;5.32;3.58;;;;;;;8.86;65.59;98472.47;5073952;28;20059;-36
2022/12/12 04:16:51;;;;;;;3.78;2.67;;;;;;;8.54;65.41;98480.59;5050207;28;20048;-36
2022/12/12 04:25:10;;;;;;;4.72;3.10;;;;;;;9.03;64.63;98479.84;5073572;28;20094;-36
2022/12/12 04:27:41;;;;;;;4.78;3.00;;;;;;;8.77;66.13;98492.38;5073464;28;20029;-36
2022/12/12 04:30:10;;;;;;;4.93;3.20;;;;;;;8.61;66.65;98472.56;5073237;28;20522;-37
2022/12/12 04:32:42;;;;;;;7.80;3.00;;;;;;;8.45;67.46;98479.25;5073400;28;20029;-37
2022/12/12 04:35:07;;;;;;;6.30;2.85;;;;;;;8.29;68.08;98477.19;5073436;28;20263;-37
2022/12/12 04:37:38;;;;;;;4.72;2.85;;;;;;;8.18;68.92;98484.00;5073019;28;20032;-37
2022/12/12 04:40:07;;;;;;;3.70;2.70;;;;;;;8.17;69.06;98474.44;5073479;28;20031;-37
2022/12/12 04:42:37;;;;;;;4.38;3.10;;;;;;;8.13;69.38;98476.72;5072937;28;20029;-36
2022/12/12 04:45:19;;;;;;;;;;;;;;;8.06;69.48;98483.91;5073905;28;20427;-37
2022/12/12 04:47:48;;;;;;;5.32;2.80;;;;;;;8.19;69.20;98488.28;5073138;28;19977;-37
2022/12/12 04:50:15;;;;;;;5.72;2.90;;;;;;;8.07;69.33;98496.09;5072875;28;20175;-37
2022/12/12 04:52:43;;;;;;;4.25;2.80;;;;;;;8.04;70.03;98491.25;5072812;28;20491;-37
2022/12/12 04:55:43;;;;;;;4.13;3.03;;;;;;;8.13;69.29;98497.91;5072692;28;20374;-37
2022/12/12 04:58:10;;;;;;;4.13;3.08;;;;;;;8.21;69.23;98505.56;5050244;28;20035;-37
2022/12/12 05:00:57;;;;;;;4.53;3.20;;;;;;;8.20;69.34;98508.44;5072834;28;20039;-35
2022/12/12 05:03:28;;;;;;;4.68;3.13;;;;;;;8.30;68.78;98510.59;5072307;28;20063;-37
2022/12/12 05:05:58;;;;;;;7.28;3.10;;;;;;;8.54;68.09;98509.75;5072723;28;20031;-36
2022/12/12 05:08:48;;;;;;;6.40;3.13;;;;;;;8.70;66.94;98513.69;5072196;28;20455;-36
2022/12/12 05:11:14;;;;;;;4.25;3.30;;;;;;;8.53;66.67;98513.47;5072547;28;20025;-37
2022/12/12 05:13:41;;;;;;;4.13;3.05;;;;;;;8.39;68.44;98519.88;5072184;28;20082;-35
2022/12/12 05:16:31;;;;;;;17.45;8.77;;;;;;;8.45;69.79;98507.63;5072333;28;20048;-36
2022/12/12 05:18:57;;;;;;;10.52;5.00;;;;;;;8.65;68.38;98523.34;5072480;28;20023;-36
2022/12/12 05:21:23;;;;;;;6.47;4.00;;;;;;;8.49;67.84;98525.53;5071870;28;20020;-36
2022/12/12 05:23:48;;;;;;;8.18;3.33;;;;;;;8.15;69.01;98535.59;5072869;28;20024;-37
2022/12/12 05:26:24;;;;;;;10.27;3.60;;;;;;;7.83;69.82;98532.19;5071777;28;20047;-36
2022/12/12 05:28:50;;;;;;;7.72;3.65;;;;;;;7.81;70.65;98536.88;5071752;28;20081;-36
2022/12/12 05:31:15;;;;;;;12.85;5.03;;;;;;;7.86;71.46;98526.44;5071638;28;20025;-37
2022/12/12 05:33:41;;;;;;;7.00;4.22;;;;;;;7.67;71.75;98530.06;5071597;28;20128;-36
2022/12/12 05:36:06;;;;;;;7.25;3.88;;;;;;;7.34;73.41;98523.13;5071816;28;20108;-37
2022/12/12 05:38:32;;;;;;;6.75;4.15;;;;;;;7.44;73.62;98537.53;5071745;28;20024;-37
2022/12/12 05:40:57;;;;;;;9.20;3.92;;;;;;;7.41;72.69;98545.09;5071426;28;20089;-37
2022/12/12 05:43:23;;;;;;;10.65;3.95;;;;;;;8.12;70.06;98538.69;5071506;28;20028;-37
2022/12/12 05:45:48;;;;;;;7.85;3.95;;;;;;;7.83;70.45;98548.88;5071329;28;20054;-36
2022/12/12 05:48:13;;;;;;;8.50;4.10;;;;;;;7.54;71.66;98546.81;5071039;28;20067;-36
2022/12/12 05:50:39;;;;;;;15.07;4.13;;;;;;;7.60;71.73;98548.66;5070966;28;20021;-37
2022/12/12 05:53:04;;;;;;;11.30;4.78;;;;;;;7.31;72.86;98548.19;5070538;28;20020;-37
2022/12/12 05:55:30;;;;;;;9.02;4.82;;;;;;;7.60;71.93;98565.34;5069948;28;20502;-36
2022/12/12 05:57:55;;;;;;;8.05;4.45;;;;;;;7.18;72.62;98559.63;5070448;28;20454;-36
2022/12/12 06:00:20;;;;;;;7.97;4.65;;;;;;;7.53;71.28;98567.19;5070844;28;20040;-37
2022/12/12 06:02:46;;;;;;;7.68;4.90;;;;;;;7.34;71.46;98570.75;5070239;28;20012;-36
2022/12/12 06:05:11;;;;;;;8.02;5.45;;;;;;;7.31;72.54;98584.41;5070515;28;20071;-36
2022/12/12 06:07:37;;;;;;;7.70;4.90;;;;;;;7.15;73.28;98577.78;5070469;28;20111;-37
2022/12/12 06:10:03;;;;;;;7.93;5.30;;;;;;;7.63;72.29;98591.41;5071149;28;20024;-37
2022/12/12 06:12:28;;;;;;;33.58;19.20;;;;;;;7.61;70.46;98587.31;5070930;28;20109;-37
2022/12/12 06:14:53;;;;;;;8.98;6.38;;;;;;;7.40;71.15;98599.84;5070935;28;20100;-37
2022/12/12 06:17:19;;;;;;;31.40;17.20;;;;;;;6.88;72.44;98604.31;5071401;28;20501;-37
2022/12/12 06:19:44;;;;;;;15.93;9.23;;;;;;;6.68;74.50;98600.88;5070496;28;20028;-37
2022/12/12 06:22:10;;;;;;;14.20;6.90;;;;;;;7.46;71.51;98598.19;5070340;28;20484;-36
2022/12/12 06:24:35;;;;;;;10.82;6.55;;;;;;;6.65;73.75;98608.19;5070702;28;20470;-37
2022/12/12 06:27:01;;;;;;;14.35;7.97;;;;;;;6.30;75.69;98618.16;5070306;28;20024;-36
2022/12/12 06:29:26;;;;;;;15.35;8.45;;;;;;;6.49;75.70;98611.25;5070408;28;20103;-37
2022/12/12 06:31:51;;;;;;;13.38;7.82;;;;;;;6.80;75.40;98609.81;5070513;28;20028;-37
2022/12/12 06:34:17;;;;;;;11.93;7.90;;;;;;;7.17;72.56;98618.84;5070134;28;20473;-37
2022/12/12 06:36:42;;;;;;;13.68;8.15;;;;;;;6.88;73.35;98622.00;5070778;28;20433;-36
2022/12/12 06:39:08;;;;;;;13.13;7.63;;;;;;;7.00;72.45;98618.50;5070251;28;20020;-37
2022/12/12 06:41:34;;;;;;;12.20;6.85;;;;;;;6.90;73.72;98623.41;5070467;28;20021;-37
2022/12/12 06:44:00;;;;;;;12.65;7.40;;;;;;;7.22;73.97;98626.19;5073313;28;20510;-37
2022/12/12 06:46:27;;;;;;;14.35;7.07;;;;;;;7.60;70.51;98636.00;5074315;28;20061;-37
2022/12/12 06:48:54;;;;;;;14.73;7.10;;;;;;;7.74;69.82;98636.75;5074069;28;20112;-37
2022/12/12 06:51:25;;;;;;;11.85;6.90;;;;;;;7.28;72.11;98635.94;5074424;28;20036;-38
2022/12/12 06:53:51;;;;;;;10.95;6.60;;;;;;;6.72;74.42;98637.28;5074525;28;20108;-37
2022/12/12 06:56:22;;;;;;;13.40;7.20;;;;;;;7.19;73.67;98648.56;5074310;28;20027;-37
2022/12/12 06:58:48;;;;;;;11.55;6.13;;;;;;;7.70;70.86;98644.31;5074201;28;20070;-36
2022/12/12 07:01:17;;;;;;;13.85;6.95;;;;;;;7.40;71.82;98641.38;5074314;28;20546;-37
2022/12/12 07:03:43;;;;;;;17.90;8.10;;;;;;;7.42;72.38;98644.63;5074280;28;20051;-37
2022/12/12 07:06:08;;;;;;;14.88;7.35;;;;;;;7.74;71.63;98642.84;5073981;28;20484;-37
2022/12/12 07:08:34;;;;;;;22.10;7.45;;;;;;;7.69;71.49;98644.50;5074052;28;20021;-36
2022/12/12 07:11:11;;;;;;;11.45;6.53;;;;;;;7.23;72.23;98601.34;5074073;28;20109;-36
2022/12/12 07:13:37;;;;;;;16.95;6.70;;;;;;;7.59;72.19;98647.63;5074134;28;20044;-36
2022/12/12 07:16:03;;;;;;;16.15;6.78;;;;;;;7.28;73.45;98653.66;5074157;28;20412;-36
2022/12/12 07:18:28;;;;;;;15.27;6.88;;;;;;;7.92;71.98;98666.00;5073854;28;20111;-36
2022/12/12 07:20:54;;;;;;;14.50;7.30;;;;;;;8.34;69.69;98668.16;5073497;28;20170;-36
2022/12/12 07:23:20;;;;;;;12.07;7.00;;;;;;;8.27;70.03;98667.41;5073810;28;20021;-36
2022/12/12 07:25:45;;;;;;;15.40;6.85;;;;;;;8.41;69.29;98658.34;5073533;28;20472;-36
2022/12/12 07:28:12;;;;;;;13.43;6.88;;;;;;;8.35;68.26;98667.16;5073487;28;20032;-36
2022/12/12 07:30:40;;;;;;;13.55;6.35;;;;;;;8.46;68.47;98669.13;5073509;28;20115;-36
2022/12/12 07:33:06;;;;;;;16.42;8.05;;;;;;;8.31;69.34;98661.47;5073289;28;20035;-36
2022/12/12 07:35:31;;;;;;;13.35;7.22;;;;;;;8.03;69.59;98675.09;5073352;28;20020;-36
2022/12/12 07:37:56;;;;;;;12.25;6.97;;;;;;;8.02;70.31;98678.78;5073038;28;20051;-37
2022/12/12 07:40:22;;;;;;;20.25;7.45;;;;;;;8.29;69.93;98683.91;5073384;28;20020;-37
2022/12/12 07:42:48;;;;;;;15.60;6.65;;;;;;;8.14;69.77;98692.16;5073258;28;20063;-37
2022/12/12 07:45:13;;;;;;;10.50;6.43;;;;;;;8.25;68.75;98690.69;5073223;28;20468;-36
2022/12/12 07:47:39;;;;;;;11.38;7.03;;;;;;;8.36;68.80;98697.94;5073365;28;20101;-37
2022/12/12 07:50:04;;;;;;;11.38;6.25;;;;;;;8.57;68.06;98712.72;5073295;28;20042;-38
2022/12/12 07:52:30;;;;;;;16.73;7.47;;;;;;;8.19;69.30;98716.19;5073129;28;20025;-36
2022/12/12 07:54:56;;;;;;;13.52;7.70;;;;;;;8.38;69.43;98717.09;5071664;28;20028;-36
2022/12/12 07:57:21;;;;;;;15.93;7.40;;;;;;;9.20;66.95;98714.41;5073124;28;20032;-37
2022/12/12 07:59:46;;;;;;;10.15;7.03;;;;;;;8.92;66.36;98710.38;5073580;28;20113;-36
2022/12/12 08:02:12;;;;;;;14.30;7.85;;;;;;;8.88;67.15;98722.47;5072807;28;20017;-37
2022/12/12 08:04:37;;;;;;;21.80;12.38;;;;;;;8.75;67.77;98725.22;5072687;28;20032;-37
2022/12/12 08:07:03;;;;;;;26.60;12.32;;;;;;;8.56;68.99;98727.78;5073249;28;20028;-36
2022/12/12 08:09:29;;;;;;;22.50;13.40;;;;;;;8.67;69.53;98736.09;5072781;28;20445;-35
2022/12/12 08:11:57;;;;;;;19.20;9.38;;;;;;;9.43;66.44;98744.84;5073084;28;20024;-36
2022/12/12 08:14:23;;;;;;;18.95;9.50;;;;;;;8.79;68.86;98734.38;5072303;28;20078;-37
2022/12/12 08:16:48;;;;;;;22.27;10.73;;;;;;;9.05;68.28;98743.16;5072364;28;20148;-37
2022/12/12 08:19:14;;;;;;;18.77;10.27;;;;;;;9.01;67.72;98748.06;5072332;28;20028;-36
2022/12/12 08:21:41;;;;;;;16.98;8.70;;;;;;;8.85;68.88;98746.75;5072547;28;20032;-36
2022/12/12 08:24:07;;;;;;;15.48;7.65;;;;;;;9.73;65.79;98756.34;5072362;28;20030;-38
2022/12/12 08:26:33;;;;;;;14.90;7.97;;;;;;;9.17;66.07;98755.47;5072260;28;20509;-36
2022/12/12 08:28:59;;;;;;;17.00;9.45;;;;;;;8.90;67.00;98754.09;5072183;28;20033;-36
2022/12/12 08:31:25;;;;;;;17.17;9.73;;;;;;;8.73;68.84;98748.50;5072439;28;20030;-36
2022/12/12 08:33:51;;;;;;;16.02;9.60;;;;;;;8.95;68.01;98755.06;5072169;28;20476;-37
2022/12/12 08:36:20;;;;;;;17.60;7.57;;;;;;;9.96;64.42;98749.53;5072513;28;20040;-37
2022/12/12 08:38:45;;;;;;;13.55;7.28;;;;;;;9.44;65.57;98749.09;5072379;28;20056;-36
2022/12/12 08:41:12;;;;;;;20.67;8.95;;;;;;;9.28;66.91;98745.97;5071986;28;20079;-36
2022/12/12 08:43:38;;;;;;;19.63;8.88;;;;;;;9.25;67.45;98746.41;5072170;28;20385;-37
2022/12/12 08:46:05;;;;;;;18.27;9.90;;;;;;;9.90;66.05;98745.94;5071756;28;20025;-37
2022/12/12 08:48:30;;;;;;;21.88;10.60;;;;;;;10.16;65.27;98762.56;5072109;28;20081;-37
2022/12/12 08:50:56;;;;;;;34.65;12.75;;;;;;;10.03;65.24;98757.41;5071504;28;20024;-37
2022/12/12 08:53:22;;;;;;;24.10;12.27;;;;;;;9.86;65.86;98758.06;5071806;28;20098;-37
2022/12/12 08:55:48;;;;;;;17.88;10.93;;;;;;;10.14;65.28;98760.13;5071794;28;20424;-37
2022/12/12 08:58:14;;;;;;;18.77;11.38;;;;;;;10.76;62.82;98767.09;5071954;28;20029;-35
2022/12/12 09:00:39;;;;;;;25.20;11.65;;;;;;;10.54;63.36;98764.94;5071426;28;20021;-36
2022/12/12 09:03:05;;;;;;;24.95;11.65;;;;;;;10.26;64.52;98759.38;5071933;28;20031;-37
2022/12/12 09:05:30;;;;;;;24.50;11.10;;;;;;;10.50;64.26;98761.09;5071308;28;20400;-37
2022/12/12 09:07:55;;;;;;;18.13;10.55;;;;;;;10.92;62.42;98746.97;5071571;28;20024;-37
2022/12/12 09:10:21;;;;;;;20.80;10.68;;;;;;;10.91;62.22;98748.81;5071265;28;20024;-37
2022/12/12 09:12:46;;;;;;;22.73;9.40;;;;;;;10.78;63.16;98753.56;5071609;28;20025;-37
2022/12/12 09:15:13;;;;;;;16.30;8.70;;;;;;;11.05;62.09;98752.06;5071749;28;20107;-36
2022/12/12 09:17:39;;;;;;;17.65;8.40;;;;;;;11.35;60.59;98751.97;5071613;28;20052;-36
2022/12/12 09:20:05;;;;;;;19.08;8.77;;;;;;;11.65;58.83;98744.84;5071359;28;20511;-36
2022/12/12 09:22:30;;;;;;;14.00;8.68;;;;;;;11.27;60.12;98746.16;5070910;28;20028;-37
2022/12/12 09:24:56;;;;;;;17.63;8.70;;;;;;;11.11;60.99;98743.16;5071033;28;20047;-37
2022/12/12 09:27:21;;;;;;;15.57;7.53;;;;;;;11.29;60.20;98747.56;5071424;28;20028;-37
2022/12/12 09:29:46;;;;;;;13.48;7.53;;;;;;;12.01;57.95;98737.63;5070889;28;20500;-37
2022/12/12 09:32:12;;;;;;;13.32;7.72;;;;;;;11.47;57.80;98733.31;5071425;28;20112;-36
2022/12/12 09:34:37;;;;;;;17.75;8.63;;;;;;;11.44;58.55;98740.94;5070877;28;20032;-36
2022/12/12 09:37:03;;;;;;;20.50;8.75;;;;;;;12.25;56.92;98735.69;5070884;28;20421;-37
2022/12/12 09:39:29;;;;;;;24.15;9.55;;;;;;;12.01;57.14;98737.63;5070691;28;20082;-37
2022/12/12 09:41:55;;;;;;;16.27;8.23;;;;;;;11.89;56.65;98743.78;5071254;28;20034;-37
2022/12/12 09:44:23;;;;;;;14.23;7.65;;;;;;;12.19;57.26;98742.78;5070821;28;20024;-37
2022/12/12 09:46:56;;;;;;;13.77;7.65;;;;;;;12.57;54.80;98730.63;5071137;28;20047;-39
2022/12/12 09:49:30;;;;;;;16.00;8.07;;;;;;;11.59;57.12;98727.94;5070790;28;20037;-36
2022/12/12 09:51:56;;;;;;;16.20;8.70;;;;;;;11.97;56.72;98726.59;5070925;28;20032;-37
2022/12/12 09:54:25;;;;;;;18.98;8.32;;;;;;;12.28;55.56;98724.50;5070651;28;20611;-37
2022/12/12 09:56:56;;;;;;;12.13;7.95;;;;;;;12.11;56.03;98722.63;5070613;28;20080;-37
2022/12/12 09:59:43;;;;;;;14.65;8.48;;;;;;;12.36;55.59;98718.00;5070692;28;20082;-37
2022/12/12 10:02:21;;;;;;;19.30;10.52;;;;;;;12.70;55.78;98711.66;5070476;28;20031;-37
2022/12/12 10:05:00;;;;;;;17.58;8.80;;;;;;;12.76;54.85;98709.06;5070421;28;20032;-37
2022/12/12 10:07:33;;;;;;;25.02;13.82;;;;;;;12.62;56.60;98708.56;5070052;28;20040;-37
2022/12/12 10:10:20;;;;;;;17.42;9.23;;;;;;;12.91;55.51;98709.31;5070313;28;20028;-37
2022/12/12 10:12:46;;;;;;;17.15;8.75;;;;;;;13.30;53.71;98696.78;5070516;28;20037;-37
2022/12/12 10:15:26;;;;;;;15.70;7.72;;;;;;;13.30;53.66;98699.47;5070463;28;20039;-36
2022/12/12 10:17:55;;;;;;;14.25;8.07;;;;;;;14.09;52.18;98708.19;5069606;28;20075;-37
2022/12/12 10:20:24;;;;;;;15.93;7.82;;;;;;;14.17;51.01;98706.94;5070376;28;20115;-37
2022/12/12 10:23:17;;;;;;;15.98;7.85;;;;;;;14.08;50.85;98701.19;5070251;28;20029;-37
2022/12/12 10:25:58;;;;;;;15.07;8.13;;;;;;;14.41;51.08;98700.22;5070286;28;20097;-37
2022/12/12 10:28:26;;;;;;;20.67;8.98;;;;;;;14.03;51.63;98699.28;5070349;28;20103;-37
2022/12/12 10:31:10;;;;;;;14.93;7.88;;;;;;;13.99;50.76;98694.69;5070168;28;20066;-39
2022/12/12 10:33:51;;;;;;;11.77;7.72;;;;;;;14.48;49.44;98692.75;5070048;28;20098;-37
2022/12/12 10:36:36;;;;;;;15.57;7.80;;;;;;;14.20;50.32;98683.16;5070483;28;20134;-36
2022/12/12 10:39:14;;;;;;;12.20;7.82;;;;;;;14.01;51.12;98681.84;5070436;28;20055;-37
2022/12/12 10:42:30;;;;;;;17.08;7.95;;;;;;;14.69;49.61;98676.91;5069571;28;20032;-36
2022/12/12 10:45:37;;;;;;;15.90;9.05;;;;;;;14.27;50.33;98677.56;5060831;28;20051;-36
2022/12/12 10:48:03;;;;;;;15.95;8.57;;;;;;;14.41;51.24;98667.25;5069936;28;20492;-37
2022/12/12 10:50:41;;;;;;;15.43;9.25;;;;;;;14.96;48.79;98665.28;5070293;28;20024;-37
2022/12/12 10:53:09;;;;;;;16.10;8.25;;;;;;;14.61;49.79;98656.75;5069848;28;20029;-35
2022/12/12 10:55:42;;;;;;;15.20;8.23;;;;;;;14.99;49.02;98662.13;5070152;28;20473;-37
2022/12/12 10:58:08;;;;;;;19.02;8.77;;;;;;;15.01;49.00;98663.47;5069861;28;20036;-37
2022/12/12 11:00:39;;;;;;;15.77;8.68;;;;;;;14.52;50.20;98665.47;5070119;28;20074;-37
2022/12/12 11:03:20;;;;;;;16.08;8.95;;;;;;;14.48;50.31;98682.03;5069778;28;20459;-36
2022/12/12 11:05:45;;;;;;;;;;;;;;;14.77;49.10;98678.28;5070361;28;20060;-36
2022/12/12 11:08:29;;;;;;;11.82;7.78;;;;;;;14.54;49.17;98679.41;5069677;28;20356;-37
2022/12/12 11:11:03;;;;;;;15.63;8.38;;;;;;;14.71;49.43;98658.69;5069749;28;20060;-37
2022/12/12 11:13:29;;;;;;;13.65;8.45;;;;;;;14.94;48.38;98656.72;5069883;28;20096;-37
2022/12/12 11:16:05;;;;;;;14.07;8.55;;;;;;;14.82;48.97;98654.22;5070240;28;20033;-37
2022/12/12 11:18:30;;;;;;;15.90;8.43;;;;;;;14.68;48.79;98645.00;5069839;28;20044;-37
2022/12/12 11:21:12;;;;;;;12.30;7.97;;;;;;;14.50;48.95;98635.50;5068749;28;20031;-38
2022/12/12 11:23:44;;;;;;;14.48;8.77;;;;;;;14.13;50.93;98638.94;5069508;28;20111;-37
2022/12/12 11:26:17;;;;;;;14.73;8.50;;;;;;;14.35;50.29;98634.28;5069492;28;20443;-37
2022/12/12 11:28:50;;;;;;;17.80;9.32;;;;;;;14.83;49.47;98637.09;5070518;28;20078;-37
2022/12/12 11:31:16;;;;;;;14.52;8.38;;;;;;;14.77;49.31;98632.75;5073845;28;20127;-37
2022/12/12 11:33:47;;;;;;;16.92;8.65;;;;;;;14.65;49.18;98627.59;5073565;28;20025;-36
2022/12/12 11:36:22;;;;;;;14.82;9.20;;;;;;;14.73;48.89;98631.66;5073184;28;20024;-36
2022/12/12 11:38:54;;;;;;;15.68;9.23;;;;;;;13.52;51.36;98615.84;5073266;28;20099;-37
2022/12/12 11:41:21;;;;;;;17.55;9.48;;;;;;;14.13;50.77;98625.56;5073141;28;20063;-37
2022/12/12 11:43:46;;;;;;;15.52;10.10;;;;;;;14.55;49.30;98627.50;5073167;28;20039;-37
2022/12/12 11:46:16;;;;;;;20.13;10.30;;;;;;;14.42;50.06;98632.22;5072986;28;20488;-37
2022/12/12 11:48:50;;;;;;;22.38;9.98;;;;;;;13.96;52.01;98631.81;5073134;28;20024;-36
2022/12/12 11:51:40;;;;;;;18.73;9.95;;;;;;;14.72;51.32;98630.88;5072866;28;20086;-37
2022/12/12 11:54:13;;;;;;;20.25;10.10;;;;;;;13.59;54.07;98637.03;5072736;28;20400;-38
2022/12/12 11:57:01;;;;;;;22.55;9.90;;;;;;;13.48;55.16;98634.25;5073048;28;20028;-37
2022/12/12 11:59:46;;;;;;;17.50;9.13;;;;;;;14.17;53.58;98642.72;5073128;28;20052;-37